Time;durP1;ratioP1;P1;durP2;ratioP2;P2;SDS_P1;SDS_P2;PMS_P1;PMS_P2;Temp;Humidity;BMP_temperature;BMP_pressure;BME280_temperature;BME280_humidity;BME280_pressure;Samples;Min_cycle;Max_cycle;Signal;HPM_P1;HPM_P2
2023/07/01 00:00:18;;;;;;;12.03;10.10;;;;;;;23.40;59.43;98266.78;6973413;28;20300;-83
2023/07/01 00:03:40;;;;;;;12.83;9.83;;;;;;;23.87;58.59;98312.50;6972731;28;20199;-83
2023/07/01 00:07:01;;;;;;;17.27;9.60;;;;;;;23.87;57.74;98310.59;6972202;28;20284;-83
2023/07/01 00:10:25;;;;;;;11.07;9.23;;;;;;;23.57;58.07;98297.34;6972896;28;20364;-83
2023/07/01 00:13:50;;;;;;;9.83;7.80;;;;;;;23.90;56.43;98303.69;6972122;28;20884;-83
2023/07/01 00:17:12;;;;;;;9.03;7.73;;;;;;;23.89;55.62;98300.09;6971058;28;20792;-83
2023/07/01 00:20:33;;;;;;;10.63;7.03;;;;;;;23.78;55.42;98306.84;6971939;28;20212;-83
2023/07/01 00:23:55;;;;;;;9.93;7.60;;;;;;;23.52;55.99;98310.34;6972215;28;20695;-83
2023/07/01 00:27:18;;;;;;;11.83;6.20;;;;;;;23.53;55.62;98306.47;6971280;28;20231;-84
2023/07/01 00:30:39;;;;;;;7.87;6.20;;;;;;;23.63;54.96;98300.81;6972453;28;20300;-83
2023/07/01 00:34:01;;;;;;;10.87;6.60;;;;;;;23.41;55.98;98301.44;6973160;28;20215;-83
2023/07/01 00:37:22;;;;;;;8.87;6.20;;;;;;;23.36;55.72;98295.22;6972211;28;20656;-83
2023/07/01 00:40:44;;;;;;;10.73;5.70;;;;;;;23.17;56.07;98286.97;6972828;28;20230;-83
2023/07/01 00:44:07;;;;;;;8.60;5.47;;;;;;;23.09;55.63;98295.88;6972111;28;20253;-83
2023/07/01 00:47:28;;;;;;;12.27;6.00;;;;;;;22.62;57.22;98295.97;6972020;28;20852;-83
2023/07/01 00:50:50;;;;;;;12.27;6.80;;;;;;;22.42;57.70;98295.38;6972181;28;20304;-83
2023/07/01 00:54:12;;;;;;;12.27;6.80;;;;;;;22.30;58.68;98298.53;6972488;28;20207;-83
2023/07/01 00:57:34;;;;;;;13.10;6.30;;;;;;;22.05;58.84;98276.03;6970480;28;20219;-82
2023/07/01 01:00:57;;;;;;;12.80;7.20;;;;;;;22.25;57.53;98278.56;6971513;28;20190;-83
2023/07/01 01:04:23;;;;;;;16.43;6.30;;;;;;;22.14;58.28;98297.06;6972699;28;20221;-83
2023/07/01 01:07:50;;;;;;;12.03;6.37;;;;;;;21.91;58.47;98291.56;6971885;28;20258;-83
2023/07/01 01:11:13;;;;;;;9.60;6.23;;;;;;;21.87;57.87;98283.09;6972546;28;20189;-83
2023/07/01 01:14:36;;;;;;;14.70;6.43;;;;;;;21.80;58.59;98290.84;6973221;28;20214;-83
2023/07/01 01:18:04;;;;;;;12.07;6.27;;;;;;;21.68;58.49;98290.41;6970905;28;20225;-82
2023/07/01 01:21:26;;;;;;;7.67;5.47;;;;;;;21.54;58.40;98266.66;6972372;28;20224;-83
2023/07/01 01:24:52;;;;;;;9.53;6.13;;;;;;;21.23;58.85;98272.69;6978497;28;20208;-83
2023/07/01 01:28:15;;;;;;;8.60;5.63;;;;;;;21.16;59.31;98277.66;6980121;28;20715;-82
2023/07/01 01:31:37;;;;;;;8.63;6.43;;;;;;;21.25;59.51;98293.22;6980804;28;20201;-83
2023/07/01 01:34:58;;;;;;;7.47;6.33;;;;;;;21.14;58.81;98273.25;6980512;28;20352;-82
2023/07/01 01:38:22;;;;;;;8.73;5.30;;;;;;;21.31;58.46;98297.56;6979187;28;20318;-83
2023/07/01 01:41:48;;;;;;;7.23;5.43;;;;;;;21.31;58.29;98297.56;6980089;28;20268;-83
2023/07/01 01:45:12;;;;;;;7.33;5.67;;;;;;;21.13;57.95;98271.63;6979854;28;20244;-83
2023/07/01 01:48:34;;;;;;;9.83;6.50;;;;;;;21.00;58.77;98290.66;6978482;28;20320;-83
2023/07/01 01:51:56;;;;;;;10.27;5.97;;;;;;;20.92;59.81;98294.00;6979262;28;20348;-83
2023/07/01 01:55:18;;;;;;;7.43;5.60;;;;;;;21.14;58.88;98303.44;6978818;28;20298;-83
2023/07/01 01:58:40;;;;;;;8.73;5.57;;;;;;;21.04;58.48;98299.94;6976465;28;20290;-83
2023/07/01 02:02:03;;;;;;;8.13;5.40;;;;;;;21.12;58.22;98293.88;6979444;28;20263;-83
2023/07/01 02:05:24;;;;;;;7.37;5.70;;;;;;;21.22;57.48;98284.75;6978592;28;20724;-83
2023/07/01 02:08:46;;;;;;;7.50;5.30;;;;;;;21.08;58.36;98281.84;6977676;28;20241;-83
2023/07/01 02:12:09;;;;;;;8.30;5.37;;;;;;;20.90;59.11;98292.63;6977953;28;20213;-83
2023/07/01 02:15:30;;;;;;;6.90;5.83;;;;;;;20.47;60.24;98288.75;6977955;28;20228;-83
2023/07/01 02:18:53;;;;;;;9.07;6.40;;;;;;;20.55;60.56;98274.44;6977022;28;20231;-83
2023/07/01 02:22:14;;;;;;;9.70;5.70;;;;;;;20.90;58.70;98268.78;6978457;28;20720;-83
2023/07/01 02:25:36;;;;;;;8.57;6.00;;;;;;;20.21;59.25;98228.88;6976863;28;20275;-83
2023/07/01 02:28:57;;;;;;;5.60;5.10;;;;;;;20.63;58.87;98271.09;6977649;28;20316;-83
2023/07/01 02:32:19;;;;;;;9.07;5.80;;;;;;;20.05;60.06;98274.59;6977217;28;20356;-83
2023/07/01 02:35:42;;;;;;;9.87;6.00;;;;;;;20.07;60.39;98275.19;6976003;28;20677;-83
2023/07/01 02:39:04;;;;;;;13.50;5.73;;;;;;;19.91;60.85;98259.03;6977109;28;20231;-83
2023/07/01 02:42:26;;;;;;;7.33;5.30;;;;;;;20.27;60.29;98269.63;6978941;28;20271;-83
2023/07/01 02:45:48;;;;;;;6.00;5.10;;;;;;;20.32;59.92;98266.06;6975600;28;20748;-83
2023/07/01 02:49:09;;;;;;;7.60;5.43;;;;;;;20.08;60.51;98271.34;6977005;28;20320;-82
2023/07/01 02:52:32;;;;;;;5.93;4.63;;;;;;;20.45;59.27;98277.22;6972302;28;20548;-83
2023/07/01 02:55:53;;;;;;;6.23;5.00;;;;;;;20.33;59.12;98273.19;6970779;28;20211;-82
2023/07/01 02:59:15;;;;;;;5.20;4.73;;;;;;;20.23;59.29;98273.22;6973002;28;20203;-82
2023/07/01 03:02:36;;;;;;;9.77;5.33;;;;;;;20.11;59.81;98276.25;6971373;28;20769;-82
2023/07/01 03:05:58;;;;;;;5.43;4.17;;;;;;;19.95;60.20;98274.66;6970791;28;20244;-82
2023/07/01 03:09:21;;;;;;;6.13;5.43;;;;;;;19.84;59.95;98285.88;6971345;28;20267;-83
2023/07/01 03:12:42;;;;;;;6.80;4.97;;;;;;;19.81;60.71;98283.72;6975450;28;20218;-82
2023/07/01 03:16:06;;;;;;;5.20;4.67;;;;;;;19.67;60.20;98278.00;6975001;28;20626;-82
2023/07/01 03:19:27;;;;;;;5.07;4.50;;;;;;;19.79;59.97;98288.63;6975926;28;20574;-82
2023/07/01 03:22:49;;;;;;;7.53;4.73;;;;;;;19.70;60.04;98282.09;6975769;28;20244;-83
2023/07/01 03:26:12;;;;;;;4.77;4.30;;;;;;;19.69;60.17;98277.72;6974965;28;20320;-83
2023/07/01 03:29:33;;;;;;;4.30;3.90;;;;;;;19.86;59.58;98292.72;6974784;28;20264;-83
2023/07/01 03:32:56;;;;;;;7.60;4.00;;;;;;;19.74;59.48;98294.94;6976178;28;20241;-83
2023/07/01 03:36:17;;;;;;;7.33;4.43;;;;;;;19.77;59.05;98258.00;6974871;28;20245;-83
2023/07/01 03:39:39;;;;;;;5.70;4.43;;;;;;;19.97;59.06;98288.03;6976094;28;20720;-83
2023/07/01 03:43:02;;;;;;;7.60;4.80;;;;;;;20.05;59.24;98285.56;6975438;28;20207;-83
2023/07/01 03:46:23;;;;;;;5.63;4.47;;;;;;;19.98;59.31;98282.28;6975797;28;20287;-83
2023/07/01 03:49:45;;;;;;;6.67;4.30;;;;;;;20.13;58.94;98290.50;6976189;28;20829;-83
2023/07/01 03:53:06;;;;;;;8.43;4.70;;;;;;;20.18;58.48;98282.28;6975770;28;20346;-83
2023/07/01 03:56:28;;;;;;;5.80;4.53;;;;;;;20.01;59.18;98267.25;6975282;28;20318;-83
2023/07/01 03:59:50;;;;;;;5.77;4.90;;;;;;;19.82;59.74;98275.22;6975730;28;20297;-83
2023/07/01 04:03:12;;;;;;;5.83;5.00;;;;;;;19.70;60.68;98282.88;6976415;28;20280;-85
2023/07/01 04:06:33;;;;;;;6.63;5.07;;;;;;;19.80;60.29;98261.00;6975127;28;20316;-83
2023/07/01 04:09:55;;;;;;;6.53;4.50;;;;;;;19.77;60.20;98271.69;6976078;28;20258;-83
2023/07/01 04:13:17;;;;;;;5.00;4.13;;;;;;;19.92;60.19;98269.72;6977267;28;20837;-82
2023/07/01 04:16:39;;;;;;;7.63;4.60;;;;;;;19.90;60.24;98269.19;6981405;28;20376;-83
2023/07/01 04:20:02;;;;;;;5.30;4.60;;;;;;;20.06;59.92;98280.91;6981739;28;20227;-83
2023/07/01 04:23:24;;;;;;;5.20;4.53;;;;;;;20.21;59.65;98289.09;6981437;28;20207;-83
2023/07/01 04:26:45;;;;;;;4.57;4.17;;;;;;;20.43;59.13;98275.88;6981617;28;20290;-83
2023/07/01 04:30:08;;;;;;;8.67;5.07;;;;;;;20.57;58.38;98285.94;6982544;28;20313;-83
2023/07/01 04:33:31;;;;;;;5.00;4.50;;;;;;;20.47;58.14;98279.69;6982114;28;20215;-82
2023/07/01 04:36:53;;;;;;;4.80;4.30;;;;;;;20.21;58.84;98270.75;6982054;28;20224;-83
2023/07/01 04:40:14;;;;;;;4.80;4.23;;;;;;;20.11;58.63;98276.25;6983080;28;20214;-83
2023/07/01 04:43:36;;;;;;;8.57;5.00;;;;;;;19.80;60.92;98263.72;6982822;28;20290;-83
2023/07/01 04:46:57;;;;;;;6.07;4.43;;;;;;;20.34;59.44;98264.66;6981618;28;20837;-82
2023/07/01 04:50:20;;;;;;;9.07;6.00;;;;;;;20.31;59.88;98261.69;6983862;28;20691;-83
2023/07/01 04:53:42;;;;;;;8.20;5.87;;;;;;;20.74;58.42;98263.66;6983512;28;20293;-83
2023/07/01 04:57:04;;;;;;;6.53;4.83;;;;;;;21.27;57.18;98261.66;6981271;28;20314;-83
2023/07/01 05:00:25;;;;;;;5.87;5.03;;;;;;;21.64;56.26;98266.53;6983114;28;20241;-83
2023/07/01 05:03:47;;;;;;;7.43;4.20;;;;;;;21.71;54.90;98261.59;6983887;28;20260;-83
2023/07/01 05:07:10;;;;;;;4.63;4.00;;;;;;;22.17;52.89;98263.53;6984361;28;20371;-83
2023/07/01 05:10:31;;;;;;;6.97;4.40;;;;;;;22.17;53.67;98257.22;6984917;28;20654;-82
2023/07/01 05:13:53;;;;;;;4.30;3.90;;;;;;;22.38;53.55;98264.94;6983845;28;20209;-82
2023/07/01 05:17:14;;;;;;;5.23;3.67;;;;;;;22.59;52.75;98260.03;6983847;28;20268;-83
2023/07/01 05:20:36;;;;;;;4.20;3.80;;;;;;;22.82;53.01;98257.22;6984854;28;20242;-83
2023/07/01 05:23:59;;;;;;;5.23;4.20;;;;;;;22.71;52.68;98255.72;6984577;28;20837;-83
2023/07/01 05:27:20;;;;;;;7.60;3.50;;;;;;;22.92;53.36;98259.00;6984711;28;20713;-82
2023/07/01 05:30:42;;;;;;;4.20;3.73;;;;;;;21.95;52.84;98194.59;6984345;28;20327;-83
2023/07/01 05:34:03;;;;;;;4.17;3.77;;;;;;;23.10;52.87;98270.00;6984440;28;20237;-82
2023/07/01 05:37:25;;;;;;;4.80;3.93;;;;;;;22.68;51.95;98197.78;6984000;28;20308;-83
2023/07/01 05:40:48;;;;;;;6.40;3.53;;;;;;;23.32;49.32;98197.88;6985609;28;20674;-83
2023/07/01 05:44:11;;;;;;;3.40;3.10;;;;;;;23.28;48.94;98258.19;6985967;28;20266;-83
2023/07/01 05:47:32;;;;;;;3.37;2.70;;;;;;;23.86;47.63;98229.09;6984859;28;20226;-83
2023/07/01 05:50:54;;;;;;;4.07;3.30;;;;;;;23.90;46.83;98243.88;6985016;28;20288;-82
2023/07/01 05:54:15;;;;;;;3.40;3.10;;;;;;;24.05;45.91;98251.88;6985847;28;20260;-83
2023/07/01 05:57:38;;;;;;;3.20;2.90;;;;;;;24.70;45.06;98257.97;6986429;28;20227;-83
2023/07/01 06:01:00;;;;;;;4.33;3.03;;;;;;;24.30;45.38;98251.38;6987049;28;20270;-83
2023/07/01 06:04:21;;;;;;;5.83;2.90;;;;;;;24.71;45.69;98254.94;6988674;28;20217;-83
2023/07/01 06:07:43;;;;;;;3.10;2.77;;;;;;;24.76;42.93;98241.03;6989313;28;20656;-83
2023/07/01 06:11:04;;;;;;;3.30;2.83;;;;;;;24.83;44.17;98243.38;6988326;28;20275;-82
2023/07/01 06:14:27;;;;;;;6.37;2.90;;;;;;;25.08;44.23;98240.81;6985702;28;20215;-83
2023/07/01 06:17:49;;;;;;;5.07;3.00;;;;;;;25.21;42.13;98248.25;6984767;28;20309;-83
2023/07/01 06:21:10;;;;;;;4.63;2.67;;;;;;;24.69;43.01;98239.81;6987848;28;20762;-83
2023/07/01 06:24:32;;;;;;;2.70;2.50;;;;;;;26.08;40.00;98249.31;6988487;28;20215;-83
2023/07/01 06:27:53;;;;;;;2.63;2.40;;;;;;;26.63;38.30;98195.22;6988041;28;20218;-83
2023/07/01 06:31:16;;;;;;;3.90;2.57;;;;;;;26.91;38.83;98221.47;6987658;28;20415;-83
2023/07/01 06:34:38;;;;;;;4.63;2.60;;;;;;;26.21;38.75;98236.56;6977611;28;20307;-83
2023/07/01 06:37:59;;;;;;;3.90;2.67;;;;;;;26.25;39.03;98240.31;6971640;28;20359;-83
2023/07/01 06:41:21;;;;;;;4.93;2.37;;;;;;;26.82;36.85;98214.25;6971510;28;20571;-83
2023/07/01 06:44:42;;;;;;;6.77;2.57;;;;;;;27.23;36.92;98226.53;6974728;28;20202;-83
2023/07/01 06:48:06;;;;;;;3.13;2.50;;;;;;;27.30;36.46;98229.63;6976560;28;20703;-83
2023/07/01 06:51:27;;;;;;;2.40;2.20;;;;;;;27.49;34.72;98230.06;6977877;28;20899;-83
2023/07/01 06:54:49;;;;;;;4.13;2.27;;;;;;;27.63;35.45;98230.72;6978976;28;20260;-83
2023/07/01 06:58:10;;;;;;;3.87;2.17;;;;;;;27.50;35.11;98211.53;6977972;28;20381;-83
2023/07/01 07:01:32;;;;;;;3.30;2.50;;;;;;;28.18;33.84;98226.00;6988860;28;20702;-83
2023/07/01 07:04:55;;;;;;;5.07;2.60;;;;;;;27.98;33.59;98220.38;7004738;28;20316;-83
2023/07/01 07:08:16;;;;;;;3.83;2.47;;;;;;;28.31;33.87;98219.41;7004137;28;20288;-83
2023/07/01 07:11:40;;;;;;;3.23;2.40;;;;;;;28.20;33.59;98211.81;7004078;28;20316;-83
2023/07/01 07:15:02;;;;;;;2.90;2.17;;;;;;;28.15;34.45;98212.81;7003412;28;20354;-83
2023/07/01 07:18:23;;;;;;;8.53;2.70;;;;;;;28.37;34.12;98211.75;7003400;28;20681;-83
2023/07/01 07:21:46;;;;;;;4.37;3.10;;;;;;;28.83;33.41;98206.09;7005368;28;20206;-83
2023/07/01 07:25:08;;;;;;;2.67;2.30;;;;;;;29.01;31.87;98200.09;7008239;28;20300;-83
2023/07/01 07:28:29;;;;;;;3.93;2.00;;;;;;;28.59;32.87;98123.50;7007078;28;20309;-83
2023/07/01 07:31:51;;;;;;;4.77;2.27;;;;;;;28.83;31.03;98195.00;7008068;28;20886;-83
2023/07/01 07:35:13;;;;;;;3.00;2.00;;;;;;;28.03;31.30;98190.53;7007992;28;20691;-83
2023/07/01 07:38:35;;;;;;;2.97;1.93;;;;;;;29.12;30.27;98192.97;7008184;28;20323;-83
2023/07/01 07:41:57;;;;;;;2.80;2.03;;;;;;;29.18;30.83;98194.38;7008181;28;20295;-83
2023/07/01 07:45:20;;;;;;;2.47;1.97;;;;;;;29.49;29.88;98193.94;7010204;28;20747;-83
2023/07/01 07:48:41;;;;;;;2.23;1.93;;;;;;;29.05;30.73;98189.94;7008216;28;20232;-83
2023/07/01 07:52:03;;;;;;;2.57;2.10;;;;;;;29.18;30.04;98193.59;7004876;28;20229;-83
2023/07/01 07:55:28;;;;;;;2.47;1.90;;;;;;;29.32;30.39;98188.53;7002593;28;20335;-84
2023/07/01 07:58:50;;;;;;;3.57;2.17;;;;;;;29.06;30.88;98174.06;7001630;28;20222;-83
2023/07/01 08:02:11;;;;;;;4.33;2.10;;;;;;;29.37;29.80;98180.81;7003765;28;20228;-83
2023/07/01 08:05:33;;;;;;;4.90;2.33;;;;;;;29.06;30.25;98186.00;7003038;28;20208;-83
2023/07/01 08:08:54;;;;;;;4.73;2.30;;;;;;;29.03;31.09;98175.59;7009717;28;20268;-83
2023/07/01 08:12:17;;;;;;;3.60;2.53;;;;;;;29.37;30.76;98171.69;7003175;28;20352;-83
2023/07/01 08:15:39;;;;;;;2.73;2.23;;;;;;;30.23;29.96;98164.00;7007923;28;20206;-84
2023/07/01 08:19:00;;;;;;;5.00;3.00;;;;;;;29.24;30.87;98170.00;7004612;28;20314;-83
2023/07/01 08:22:22;;;;;;;6.43;2.23;;;;;;;29.36;29.97;98158.94;7004569;28;20268;-83
2023/07/01 08:25:44;;;;;;;2.53;2.20;;;;;;;30.03;28.73;98157.38;6983227;28;20299;-83
2023/07/01 08:29:09;;;;;;;3.50;2.20;;;;;;;29.56;29.28;98156.16;6976670;28;20285;-83
2023/07/01 08:32:30;;;;;;;4.43;2.83;;;;;;;30.16;28.93;98152.63;6974947;28;20675;-83
2023/07/01 08:35:52;;;;;;;4.27;2.40;;;;;;;30.33;29.56;98160.75;6972266;28;20248;-83
2023/07/01 08:39:13;;;;;;;4.47;2.20;;;;;;;30.44;29.19;98148.00;6973708;28;20325;-83
2023/07/01 08:42:39;;;;;;;3.20;2.30;;;;;;;30.16;29.08;98156.25;6974452;28;20342;-83
2023/07/01 08:46:03;;;;;;;5.53;2.57;;;;;;;29.93;29.31;98155.03;6975707;28;20239;-83
2023/07/01 08:49:25;;;;;;;3.20;2.30;;;;;;;29.83;29.05;98143.56;6974444;28;20220;-83
2023/07/01 08:52:47;;;;;;;4.60;2.53;;;;;;;28.99;31.03;98152.44;6974555;28;20204;-83
2023/07/01 08:56:09;;;;;;;4.07;2.50;;;;;;;28.54;31.45;98153.41;6971784;28;20317;-83
2023/07/01 08:59:31;;;;;;;3.43;2.37;;;;;;;29.19;31.13;98150.78;6975805;28;20285;-84
2023/07/01 09:02:54;;;;;;;5.30;2.50;;;;;;;29.47;31.64;98137.88;6992659;28;20190;-84
2023/07/01 09:06:15;;;;;;;4.13;2.40;;;;;;;29.18;31.03;98138.06;6988035;28;20276;-83
2023/07/01 09:09:38;;;;;;;3.23;2.03;;;;;;;29.12;31.02;98133.84;6971301;28;20616;-84
2023/07/01 09:13:09;;;;;;;2.80;2.10;;;;;;;28.90;30.33;98089.78;6972015;28;20713;-83
2023/07/01 09:16:33;;;;;;;5.93;2.60;;;;;;;29.61;30.03;98103.09;6971591;28;20418;-83
2023/07/01 09:19:59;;;;;;;2.47;2.27;;;;;;;29.25;29.96;98105.78;6971685;28;20213;-83
2023/07/01 09:23:32;;;;;;;4.40;2.33;;;;;;;29.87;29.69;98122.25;6971539;28;20181;-83
2023/07/01 09:26:54;;;;;;;5.17;2.40;;;;;;;29.76;29.47;98112.72;6971929;28;20698;-83
2023/07/01 09:30:25;;;;;;;4.03;2.40;;;;;;;30.41;27.93;98109.72;6971495;28;20238;-83
2023/07/01 09:34:01;;;;;;;4.53;2.23;;;;;;;30.02;28.89;98108.47;6971826;28;20317;-83
2023/07/01 09:37:24;;;;;;;3.13;2.30;;;;;;;29.84;29.29;98109.06;6970876;28;20224;-83
2023/07/01 09:40:47;;;;;;;3.63;2.37;;;;;;;29.68;28.85;98041.41;6971351;28;20211;-84
2023/07/01 09:44:18;;;;;;;3.23;2.27;;;;;;;30.17;28.42;98102.25;6971719;28;20629;-84
2023/07/01 09:47:40;;;;;;;2.47;2.13;;;;;;;29.63;28.89;98102.75;6971089;28;20351;-83
2023/07/01 09:51:02;;;;;;;4.03;2.20;;;;;;;29.27;29.26;98103.47;6970870;28;20234;-83
2023/07/01 09:54:26;;;;;;;3.93;1.90;;;;;;;29.14;29.09;98082.38;6980479;28;20194;-83
2023/07/01 09:57:47;;;;;;;2.60;2.40;;;;;;;29.67;29.56;98089.81;6999211;28;20228;-83
2023/07/01 10:01:09;;;;;;;2.20;2.00;;;;;;;29.73;28.67;98082.88;7002441;28;20226;-82
2023/07/01 10:04:31;;;;;;;4.17;2.20;;;;;;;29.72;27.59;98023.69;7002185;28;20205;-83
2023/07/01 10:07:52;;;;;;;3.03;1.90;;;;;;;30.68;27.41;98065.31;7001361;28;20369;-83
2023/07/01 10:11:21;;;;;;;2.27;1.80;;;;;;;31.18;26.86;98057.19;6999387;28;20322;-83
2023/07/01 10:14:47;;;;;;;2.23;1.80;;;;;;;31.02;25.88;98044.38;6999398;28;20570;-83
2023/07/01 10:18:20;;;;;;;3.40;2.07;;;;;;;30.63;25.86;98054.38;7002164;28;20232;-83
2023/07/01 10:21:42;;;;;;;1.97;1.77;;;;;;;29.90;26.31;98063.19;7008546;28;20225;-83
2023/07/01 10:25:06;;;;;;;3.93;2.40;;;;;;;29.65;25.64;98058.75;7007810;28;20246;-83
2023/07/01 10:28:33;;;;;;;2.27;1.67;;;;;;;30.03;26.67;98048.13;7009291;28;20228;-83
2023/07/01 10:32:31;;;;;;;3.03;2.10;;;;;;;30.47;25.35;98050.72;7013310;28;20239;-83
2023/07/01 10:36:01;;;;;;;2.10;1.90;;;;;;;29.97;25.79;98046.72;7006714;28;20223;-83
2023/07/01 10:39:33;;;;;;;2.77;2.40;;;;;;;30.78;25.57;98044.50;7005666;28;20796;-83
2023/07/01 10:43:21;;;;;;;3.60;1.90;;;;;;;30.77;24.77;98037.31;7005634;28;20558;-83
2023/07/01 10:46:45;;;;;;;3.43;2.27;;;;;;;30.03;24.80;98043.38;7004995;28;20662;-83
2023/07/01 10:50:08;;;;;;;8.43;2.77;;;;;;;30.06;23.98;98051.00;7004587;28;20206;-83
2023/07/01 10:53:30;;;;;;;2.83;2.63;;;;;;;30.78;23.21;98038.94;7005088;28;20611;-83
2023/07/01 10:57:12;;;;;;;2.63;2.40;;;;;;;30.27;23.63;98031.41;7002388;28;20313;-83
2023/07/01 11:00:37;;;;;;;5.03;2.50;;;;;;;29.81;24.77;98026.34;7004299;28;20245;-83
2023/07/01 11:04:00;;;;;;;3.63;2.33;;;;;;;29.79;24.91;98035.03;7004952;28;20289;-82
2023/07/01 11:07:23;;;;;;;2.40;2.20;;;;;;;30.13;24.17;98017.88;7004092;28;20311;-84
2023/07/01 11:10:45;;;;;;;4.63;2.30;;;;;;;30.42;24.98;98012.00;7003854;28;20327;-83
2023/07/01 11:14:08;;;;;;;4.00;2.70;;;;;;;31.37;22.94;98004.38;7005752;28;20295;-84
2023/07/01 11:17:29;;;;;;;2.93;2.37;;;;;;;32.21;22.06;98006.44;7005014;28;20272;-83
2023/07/01 11:20:52;;;;;;;6.67;2.90;;;;;;;31.71;24.04;98012.00;7005101;28;20306;-83
2023/07/01 11:24:22;;;;;;;2.93;2.63;;;;;;;31.59;23.29;98014.06;7004956;28;20217;-83
2023/07/01 11:27:43;;;;;;;3.10;2.20;;;;;;;31.12;24.35;97999.28;7004125;28;20719;-82
2023/07/01 11:31:14;;;;;;;2.77;2.57;;;;;;;31.37;23.04;97992.44;7003114;28;20263;-83
2023/07/01 11:34:36;;;;;;;2.90;2.63;;;;;;;31.50;22.46;97988.38;7005510;28;20216;-83
2023/07/01 11:37:59;;;;;;;4.27;3.50;;;;;;;30.94;22.19;98004.38;7003836;28;20224;-83
2023/07/01 11:41:23;;;;;;;4.93;3.10;;;;;;;30.30;22.23;97986.22;7004972;28;20269;-83
2023/07/01 11:44:45;;;;;;;6.33;3.80;;;;;;;30.57;21.92;97977.88;7005023;28;20205;-83
2023/07/01 11:48:06;;;;;;;4.37;3.27;;;;;;;30.09;23.27;97982.75;7004279;28;20249;-83
2023/07/01 11:51:37;;;;;;;4.20;3.40;;;;;;;30.60;23.59;97984.72;7004024;28;20286;-83
2023/07/01 11:55:00;;;;;;;3.43;2.97;;;;;;;30.59;24.31;97988.63;7005303;28;20818;-83
2023/07/01 11:58:28;;;;;;;3.60;3.17;;;;;;;30.50;24.25;97979.63;7004107;28;20344;-83
2023/07/01 12:01:50;;;;;;;5.70;3.33;;;;;;;30.39;24.69;97990.47;6999708;28;20214;-83
2023/07/01 12:05:11;;;;;;;3.13;2.87;;;;;;;30.71;23.98;97983.88;7004992;28;20278;-83
2023/07/01 12:08:51;;;;;;;3.97;2.90;;;;;;;30.72;24.68;97985.47;7003748;28;20817;-83
2023/07/01 12:12:16;;;;;;;4.53;3.17;;;;;;;30.71;23.49;97989.44;7004086;28;20216;-83
2023/07/01 12:15:51;;;;;;;4.60;3.37;;;;;;;30.54;23.95;97991.69;7004107;28;20193;-83
2023/07/01 12:19:13;;;;;;;3.43;2.97;;;;;;;30.27;23.78;97984.13;7004422;28;20350;-82
2023/07/01 12:22:35;;;;;;;3.30;2.93;;;;;;;30.23;23.94;97972.06;7004712;28;20672;-83
2023/07/01 12:25:57;;;;;;;3.80;3.30;;;;;;;29.79;24.56;97970.31;7003400;28;20216;-83
2023/07/01 12:29:20;;;;;;;5.80;2.80;;;;;;;30.43;24.61;97985.00;7004290;28;20681;-83
2023/07/01 12:32:41;;;;;;;5.03;3.13;;;;;;;29.70;25.90;97978.78;7004787;28;20314;-83
2023/07/01 12:36:03;;;;;;;3.13;2.80;;;;;;;29.45;26.51;97959.66;7003092;28;20373;-83
2023/07/01 12:39:25;;;;;;;4.97;2.87;;;;;;;30.03;25.88;97976.66;7003623;28;20198;-83
2023/07/01 12:42:50;;;;;;;3.83;2.90;;;;;;;30.07;26.12;97983.09;7005057;28;20623;-83
2023/07/01 12:46:14;;;;;;;3.30;2.53;;;;;;;30.06;26.55;97975.09;7003758;28;20237;-83
2023/07/01 12:49:37;;;;;;;3.53;2.73;;;;;;;29.31;27.79;97979.41;7004495;28;20207;-83
2023/07/01 12:52:58;;;;;;;5.87;2.63;;;;;;;29.79;27.23;97978.66;7004851;28;20345;-82
2023/07/01 12:56:20;;;;;;;3.17;2.30;;;;;;;29.46;27.90;97973.19;7002727;28;20301;-83
2023/07/01 12:59:45;;;;;;;3.00;2.27;;;;;;;28.74;28.08;97958.38;7006854;28;20208;-83
2023/07/01 13:03:08;;;;;;;2.93;2.43;;;;;;;29.67;27.50;97985.00;7012653;28;20238;-83
2023/07/01 13:06:32;;;;;;;2.33;2.00;;;;;;;29.02;27.84;97987.94;7005957;28;20252;-82
2023/07/01 13:09:54;;;;;;;2.30;2.10;;;;;;;29.17;27.94;97984.50;7004162;28;20352;-83
2023/07/01 13:13:16;;;;;;;3.27;2.60;;;;;;;29.22;27.56;97964.84;7012675;28;20235;-83
2023/07/01 13:16:39;;;;;;;2.77;2.40;;;;;;;29.45;27.85;97970.75;7012482;28;20221;-82
2023/07/01 13:20:02;;;;;;;2.50;2.30;;;;;;;29.35;27.67;97980.38;7014025;28;20227;-83
2023/07/01 13:23:28;;;;;;;5.90;2.30;;;;;;;28.56;28.10;97968.84;7002541;28;20207;-83
2023/07/01 13:26:53;;;;;;;2.63;1.77;;;;;;;29.00;28.58;97978.34;7001508;28;20229;-83
2023/07/01 13:30:29;;;;;;;3.13;1.83;;;;;;;29.00;28.32;97983.88;7003381;28;20208;-82
2023/07/01 13:33:55;;;;;;;3.53;1.80;;;;;;;28.76;28.89;97975.47;7002353;28;20223;-83
2023/07/01 13:37:20;;;;;;;1.67;1.57;;;;;;;28.61;28.92;97982.47;7002057;28;20249;-83
2023/07/01 13:40:44;;;;;;;3.23;2.03;;;;;;;28.52;29.35;97976.22;7002676;28;20273;-83
2023/07/01 13:44:18;;;;;;;1.63;1.50;;;;;;;29.17;29.00;97976.19;7003242;28;20208;-83
2023/07/01 13:47:45;;;;;;;1.87;1.70;;;;;;;28.74;29.33;97958.38;7009136;28;20231;-83
2023/07/01 13:51:07;;;;;;;5.73;1.70;;;;;;;29.12;29.78;97970.03;7003298;28;20235;-83
2023/07/01 13:54:30;;;;;;;3.00;2.10;;;;;;;28.59;29.70;97967.31;7002136;28;20208;-82
2023/07/01 13:57:53;;;;;;;3.13;2.10;;;;;;;28.48;31.24;97978.03;7001334;28;20316;-83
2023/07/01 14:01:15;;;;;;;1.73;1.63;;;;;;;28.15;31.28;97932.00;6987896;28;20212;-82
2023/07/01 14:04:36;;;;;;;4.40;1.87;;;;;;;28.00;31.86;97946.47;6975415;28;20187;-83
2023/07/01 14:07:59;;;;;;;2.40;1.90;;;;;;;28.67;30.81;97975.56;6974868;28;20238;-82
2023/07/01 14:11:24;;;;;;;2.17;1.63;;;;;;;27.68;32.45;97916.69;6976649;28;20220;-82
2023/07/01 14:14:47;;;;;;;1.70;1.60;;;;;;;28.11;32.73;97980.94;6989121;28;20209;-83
2023/07/01 14:18:25;;;;;;;2.03;1.60;;;;;;;28.25;32.46;97970.41;6990525;28;20226;-83
2023/07/01 14:21:48;;;;;;;2.63;1.80;;;;;;;28.08;33.35;97982.44;6990793;28;20209;-82
2023/07/01 14:25:11;;;;;;;2.37;1.67;;;;;;;28.21;32.45;97972.22;6991386;28;20220;-83
2023/07/01 14:28:34;;;;;;;2.20;1.90;;;;;;;27.93;33.11;97962.81;6974615;28;20235;-83
2023/07/01 14:31:57;;;;;;;6.43;1.83;;;;;;;28.03;33.62;97960.47;6971220;28;20324;-83
2023/07/01 14:35:19;;;;;;;3.60;1.53;;;;;;;27.70;34.22;97965.09;6970876;28;20217;-83
2023/07/01 14:38:43;;;;;;;1.90;1.80;;;;;;;27.97;33.32;97959.06;6970169;28;20318;-82
2023/07/01 14:42:06;;;;;;;1.70;1.60;;;;;;;27.90;33.73;97969.84;6970739;28;20204;-83
2023/07/01 14:45:29;;;;;;;3.37;1.87;;;;;;;27.84;33.70;97968.44;6970524;28;20250;-83
2023/07/01 14:48:51;;;;;;;3.43;1.77;;;;;;;28.09;33.17;97950.81;6970454;28;20309;-83
2023/07/01 14:52:13;;;;;;;2.00;1.80;;;;;;;28.00;33.58;97958.38;6971014;28;20226;-83
2023/07/01 14:55:34;;;;;;;2.30;1.80;;;;;;;28.09;33.83;97964.69;6970953;28;20265;-83
2023/07/01 14:58:57;;;;;;;2.47;2.07;;;;;;;27.71;34.08;97960.38;6968720;28;20820;-83
2023/07/01 15:02:20;;;;;;;3.10;1.70;;;;;;;28.04;33.25;97956.56;6971049;28;20194;-84
2023/07/01 15:05:41;;;;;;;2.03;1.20;;;;;;;27.47;33.85;97874.31;6973239;28;20812;-83
2023/07/01 15:09:03;;;;;;;4.33;1.67;;;;;;;28.46;32.76;97929.59;6976602;28;20324;-83
2023/07/01 15:12:24;;;;;;;1.67;1.57;;;;;;;28.25;33.17;97951.78;6976966;28;20294;-83
2023/07/01 15:15:46;;;;;;;1.80;1.43;;;;;;;27.77;33.23;97887.00;6974959;28;20252;-83
2023/07/01 15:19:09;;;;;;;2.50;1.50;;;;;;;28.17;34.06;97930.50;6976275;28;20814;-82
2023/07/01 15:22:30;;;;;;;1.50;1.40;;;;;;;28.66;32.78;97934.31;6977213;28;20208;-82
2023/07/01 15:25:52;;;;;;;1.73;1.50;;;;;;;28.50;33.41;97914.75;6978705;28;20295;-83
2023/07/01 15:29:14;;;;;;;2.20;1.50;;;;;;;27.79;34.48;97929.84;6975697;28;20203;-83
2023/07/01 15:32:35;;;;;;;2.43;1.53;;;;;;;27.87;34.33;97926.22;6975533;28;20244;-83
2023/07/01 15:35:58;;;;;;;3.63;1.70;;;;;;;27.57;35.01;97932.09;6974895;28;20364;-82
2023/07/01 15:39:20;;;;;;;1.93;1.73;;;;;;;27.71;35.04;97939.00;6974613;28;20305;-82
2023/07/01 15:42:41;;;;;;;1.87;1.63;;;;;;;27.41;35.56;97926.31;6974627;28;20347;-82
2023/07/01 15:46:03;;;;;;;1.70;1.60;;;;;;;27.81;34.79;97940.59;6973526;28;20302;-83
2023/07/01 15:49:24;;;;;;;1.83;1.73;;;;;;;27.36;35.73;97937.59;6974332;28;20303;-82
2023/07/01 15:52:47;;;;;;;2.23;1.83;;;;;;;27.84;34.91;97940.72;6974156;28;20227;-83